Detall de PIREP

Printer-friendly versionPDF version

[2015/04/02 15:59:00]
Flight IATA:CT1004
Pilot Number:012
Company ICAO:CAT
Aircraft Type:B744/E
PAX:426
Departing Airport: LFMP
Destination Airport: LPPR
Alternate Airport:LEST
Online: VATSIM
Route:BGR UT410 ARBEK UN725 DGO UN976 ZMR UL155 PRT UP600 TURON
Flight Level:F350
No Slew and time accel
No pause
Crash detect
Detect pilot in Cockpit between each 30 and 45 minutes
15:59 Zero fuel Weight: 488604 Lbs, Fuel Weight: 67570 Lbs
15:59 VATSIM:LFMP 021530Z AUTO 32013KT 280V350 9999 NSC 19/05 Q1021
15:59 VATSIM:LPPR 021530Z 32007KT 290V350 CAVOK 23/05 Q1022
15:59 EASTER CHARTER
16:02 Parking Brakes off
16:06 Take-off
16:06 Take off Weight: 554615 Lbs
16:06 Wind: 319º @ 013 Knots Heading: 329º
16:06 POS N42º 44´ 48´´ E002º 52´ 02´´
16:06 Flaps:3 at 178 Knots
16:06 Gear Up: 192 Knots
16:07 Flaps:2 at 217 Knots
16:07 Flaps:1 at 231 Knots
16:08 Flaps:0 at 204 Knots
16:21 Wind:309º@057 Knots Heading: 249º Ground Speed: 463 Knots Altitude 31532 ft
16:23 TOC
16:23 Fuel Weight: 53371 Lb
16:36 Wind:295º@053 Knots Heading: 288º Ground Speed: 430 Knots Altitude 35259 ft
16:51 Wind:289º@050 Knots Heading: 287º Ground Speed: 433 Knots Altitude 35295 ft
17:06 Wind:278º@049 Knots Heading: 247º Ground Speed: 440 Knots Altitude 35370 ft
17:21 Wind:257º@043 Knots Heading: 263º Ground Speed: 439 Knots Altitude 35301 ft
17:29 TOD
17:29 Fuel Weight: 30763 Lb
17:36 Wind:254º@013 Knots Heading: 262º Ground Speed: 365 Knots Altitude 19416 ft
17:40 Flaps:1 at 247 Knots
17:41 Flaps:2 at 242 Knots
17:41 Flaps:3 at 235 Knots
17:44 Flaps:4 at 211 Knots
17:44 Gear Down: 208 Knots
17:45 Flaps:5 at 165 Knots
17:45 Flaps:6 at 155 Knots
17:48 TouchDown:Rate -152 ft/min Speed: 135 Knots
17:49 VATSIM:LPPR 021730Z 35007KT CAVOK 21/07 Q1021
17:49 Land
17:49 Wind:353º@008 Knots
17:49 Heading: 351º
17:49 Flight Duration: 01:43
17:49 Landing Weight: 515592 Lbs
17:49 POS N41º 14´ 49´´ W008º 40´ 51´´
17:52 Parking brakes on
17:52 Block to Block Duration: 01:50
17:52 Final Fuel: 26261 Lbls
17:52 Spent Fuel: 41309 Lbls
17:52 Flight Length: 683 NM
17:52 TOD Land Length: 97 NM

Exportar CSV

Powered by Drupal - Modified by Danger4k